sensor_id;sensor_type;location;lat;lon;timestamp;temperature;humidity
66088;DHT22;52872;52.994;6.940;2023-02-18T00:01:30;9.00;99.90
66088;DHT22;52872;52.994;6.940;2023-02-18T00:03:58;9.00;99.90
66088;DHT22;52872;52.994;6.940;2023-02-18T00:06:30;9.00;99.90
66088;DHT22;52872;52.994;6.940;2023-02-18T00:08:58;9.00;99.90
66088;DHT22;52872;52.994;6.940;2023-02-18T00:11:29;9.00;99.90
66088;DHT22;52872;52.994;6.940;2023-02-18T00:13:59;9.10;99.90
66088;DHT22;52872;52.994;6.940;2023-02-18T00:16:28;9.10;99.90
66088;DHT22;52872;52.994;6.940;2023-02-18T00:19:01;9.10;99.90
66088;DHT22;52872;52.994;6.940;2023-02-18T00:21:29;9.10;99.90
66088;DHT22;52872;52.994;6.940;2023-02-18T00:23:56;9.20;99.90
66088;DHT22;52872;52.994;6.940;2023-02-18T00:26:23;9.20;99.90
66088;DHT22;52872;52.994;6.940;2023-02-18T00:28:54;9.20;99.90
66088;DHT22;52872;52.994;6.940;2023-02-18T00:31:25;9.20;99.90
66088;DHT22;52872;52.994;6.940;2023-02-18T00:33:53;9.20;99.90
66088;DHT22;52872;52.994;6.940;2023-02-18T00:36:20;9.20;99.90
66088;DHT22;52872;52.994;6.940;2023-02-18T00:38:50;9.20;99.90
66088;DHT22;52872;52.994;6.940;2023-02-18T00:41:18;9.30;99.90
66088;DHT22;52872;52.994;6.940;2023-02-18T00:43:46;9.30;99.90
66088;DHT22;52872;52.994;6.940;2023-02-18T00:46:16;9.20;99.90
66088;DHT22;52872;52.994;6.940;2023-02-18T00:48:43;9.20;99.90
66088;DHT22;52872;52.994;6.940;2023-02-18T00:51:11;9.10;99.90
66088;DHT22;52872;52.994;6.940;2023-02-18T00:53:38;9.10;99.90
66088;DHT22;52872;52.994;6.940;2023-02-18T00:56:06;9.00;99.90
66088;DHT22;52872;52.994;6.940;2023-02-18T00:58:34;8.90;99.90
66088;DHT22;52872;52.994;6.940;2023-02-18T01:01:04;8.90;99.90
66088;DHT22;52872;52.994;6.940;2023-02-18T01:03:34;8.80;99.90
66088;DHT22;52872;52.994;6.940;2023-02-18T01:06:02;8.70;99.90
66088;DHT22;52872;52.994;6.940;2023-02-18T01:08:32;8.70;99.90
66088;DHT22;52872;52.994;6.940;2023-02-18T01:10:59;8.60;99.90
66088;DHT22;52872;52.994;6.940;2023-02-18T01:13:27;8.50;99.90
66088;DHT22;52872;52.994;6.940;2023-02-18T01:15:54;8.50;99.90
66088;DHT22;52872;52.994;6.940;2023-02-18T01:18:23;8.40;99.90
66088;DHT22;52872;52.994;6.940;2023-02-18T01:20:50;8.50;99.90
66088;DHT22;52872;52.994;6.940;2023-02-18T01:23:17;8.50;99.90
66088;DHT22;52872;52.994;6.940;2023-02-18T01:25:44;8.50;99.90
66088;DHT22;52872;52.994;6.940;2023-02-18T01:28:13;8.50;99.90
66088;DHT22;52872;52.994;6.940;2023-02-18T01:30:41;8.50;99.90
66088;DHT22;52872;52.994;6.940;2023-02-18T01:33:08;8.50;99.90
66088;DHT22;52872;52.994;6.940;2023-02-18T01:35:38;8.50;99.90
66088;DHT22;52872;52.994;6.940;2023-02-18T01:38:06;8.50;99.90
66088;DHT22;52872;52.994;6.940;2023-02-18T01:40:34;8.70;99.90
66088;DHT22;52872;52.994;6.940;2023-02-18T01:43:01;8.70;99.90
66088;DHT22;52872;52.994;6.940;2023-02-18T01:48:24;8.90;99.90
66088;DHT22;52872;52.994;6.940;2023-02-18T01:51:08;9.00;99.90
66088;DHT22;52872;52.994;6.940;2023-02-18T01:53:41;9.00;99.90
66088;DHT22;52872;52.994;6.940;2023-02-18T01:56:12;9.00;99.90
66088;DHT22;52872;52.994;6.940;2023-02-18T01:58:41;9.10;99.90
66088;DHT22;52872;52.994;6.940;2023-02-18T02:01:09;9.10;99.90
66088;DHT22;52872;52.994;6.940;2023-02-18T02:03:36;9.20;99.90
66088;DHT22;52872;52.994;6.940;2023-02-18T02:06:11;9.20;99.90
66088;DHT22;52872;52.994;6.940;2023-02-18T02:08:39;9.30;99.90
66088;DHT22;52872;52.994;6.940;2023-02-18T02:11:40;9.30;99.90
66088;DHT22;52872;52.994;6.940;2023-02-18T02:17:08;9.40;99.90
66088;DHT22;52872;52.994;6.940;2023-02-18T02:34:27;9.50;99.90
66088;DHT22;52872;52.994;6.940;2023-02-18T02:37:07;9.50;99.90
66088;DHT22;52872;52.994;6.940;2023-02-18T02:48:03;9.50;99.90
66088;DHT22;52872;52.994;6.940;2023-02-18T02:53:16;9.50;99.90
66088;DHT22;52872;52.994;6.940;2023-02-18T02:55:46;9.60;99.90
66088;DHT22;52872;52.994;6.940;2023-02-18T02:58:18;9.60;99.90
66088;DHT22;52872;52.994;6.940;2023-02-18T03:01:08;9.60;99.90
66088;DHT22;52872;52.994;6.940;2023-02-18T03:09:58;9.70;99.90
66088;DHT22;52872;52.994;6.940;2023-02-18T03:12:28;9.60;99.90
66088;DHT22;52872;52.994;6.940;2023-02-18T03:17:59;9.70;99.90
66088;DHT22;52872;52.994;6.940;2023-02-18T03:20:35;9.80;99.90
66088;DHT22;52872;52.994;6.940;2023-02-18T03:23:07;9.80;99.90
66088;DHT22;52872;52.994;6.940;2023-02-18T03:25:36;9.80;99.90
66088;DHT22;52872;52.994;6.940;2023-02-18T03:28:09;9.80;99.90
66088;DHT22;52872;52.994;6.940;2023-02-18T03:30:47;9.80;99.90
66088;DHT22;52872;52.994;6.940;2023-02-18T03:33:19;9.80;99.90
66088;DHT22;52872;52.994;6.940;2023-02-18T03:35:48;9.90;99.90
66088;DHT22;52872;52.994;6.940;2023-02-18T03:40:49;10.00;99.90
66088;DHT22;52872;52.994;6.940;2023-02-18T03:43:16;10.00;99.90
66088;DHT22;52872;52.994;6.940;2023-02-18T03:45:44;10.00;99.90
66088;DHT22;52872;52.994;6.940;2023-02-18T03:48:11;10.00;99.90
66088;DHT22;52872;52.994;6.940;2023-02-18T03:50:38;10.00;99.90
66088;DHT22;52872;52.994;6.940;2023-02-18T03:53:05;10.00;99.90
66088;DHT22;52872;52.994;6.940;2023-02-18T03:55:32;10.10;99.90
66088;DHT22;52872;52.994;6.940;2023-02-18T03:57:59;10.10;99.90
66088;DHT22;52872;52.994;6.940;2023-02-18T04:00:26;10.10;99.90
66088;DHT22;52872;52.994;6.940;2023-02-18T04:02:53;10.10;99.90
66088;DHT22;52872;52.994;6.940;2023-02-18T04:05:20;10.10;99.90
66088;DHT22;52872;52.994;6.940;2023-02-18T04:07:47;10.20;99.90
66088;DHT22;52872;52.994;6.940;2023-02-18T04:10:14;10.20;99.90
66088;DHT22;52872;52.994;6.940;2023-02-18T04:12:41;10.20;99.90
66088;DHT22;52872;52.994;6.940;2023-02-18T04:15:08;10.20;99.90
66088;DHT22;52872;52.994;6.940;2023-02-18T04:17:35;10.30;99.90
66088;DHT22;52872;52.994;6.940;2023-02-18T04:20:03;10.30;99.90
66088;DHT22;52872;52.994;6.940;2023-02-18T04:22:32;10.30;99.90
66088;DHT22;52872;52.994;6.940;2023-02-18T04:24:59;10.30;99.90
66088;DHT22;52872;52.994;6.940;2023-02-18T04:27:26;10.30;99.90
66088;DHT22;52872;52.994;6.940;2023-02-18T04:29:53;10.30;99.90
66088;DHT22;52872;52.994;6.940;2023-02-18T04:32:20;10.30;99.90
66088;DHT22;52872;52.994;6.940;2023-02-18T04:34:47;10.40;99.90
66088;DHT22;52872;52.994;6.940;2023-02-18T04:37:14;10.40;99.90
66088;DHT22;52872;52.994;6.940;2023-02-18T04:39:41;10.40;99.90
66088;DHT22;52872;52.994;6.940;2023-02-18T04:42:08;10.40;99.90
66088;DHT22;52872;52.994;6.940;2023-02-18T04:44:36;10.40;99.90
66088;DHT22;52872;52.994;6.940;2023-02-18T04:47:07;10.40;99.90
66088;DHT22;52872;52.994;6.940;2023-02-18T04:49:34;10.50;99.90
66088;DHT22;52872;52.994;6.940;2023-02-18T04:52:01;10.50;99.90
66088;DHT22;52872;52.994;6.940;2023-02-18T04:54:29;10.50;99.90
66088;DHT22;52872;52.994;6.940;2023-02-18T04:56:56;10.50;99.90
66088;DHT22;52872;52.994;6.940;2023-02-18T04:59:23;10.50;99.90
66088;DHT22;52872;52.994;6.940;2023-02-18T05:01:50;10.50;99.90
66088;DHT22;52872;52.994;6.940;2023-02-18T05:04:17;10.50;99.90
66088;DHT22;52872;52.994;6.940;2023-02-18T05:06:44;10.50;99.90
66088;DHT22;52872;52.994;6.940;2023-02-18T05:09:12;10.60;99.90
66088;DHT22;52872;52.994;6.940;2023-02-18T05:11:40;10.60;99.90
66088;DHT22;52872;52.994;6.940;2023-02-18T05:14:07;10.60;99.90
66088;DHT22;52872;52.994;6.940;2023-02-18T05:16:34;10.60;99.90
66088;DHT22;52872;52.994;6.940;2023-02-18T05:19:01;10.60;99.90
66088;DHT22;52872;52.994;6.940;2023-02-18T05:21:28;10.60;99.90
66088;DHT22;52872;52.994;6.940;2023-02-18T05:23:55;10.60;99.90
66088;DHT22;52872;52.994;6.940;2023-02-18T05:26:23;10.60;99.90
66088;DHT22;52872;52.994;6.940;2023-02-18T05:28:50;10.60;99.90
66088;DHT22;52872;52.994;6.940;2023-02-18T05:31:17;10.60;99.90
66088;DHT22;52872;52.994;6.940;2023-02-18T05:33:44;10.60;99.90
66088;DHT22;52872;52.994;6.940;2023-02-18T05:36:11;10.60;99.90
66088;DHT22;52872;52.994;6.940;2023-02-18T05:38:38;10.60;99.90
66088;DHT22;52872;52.994;6.940;2023-02-18T05:41:05;10.60;99.90
66088;DHT22;52872;52.994;6.940;2023-02-18T05:43:32;10.60;99.90
66088;DHT22;52872;52.994;6.940;2023-02-18T05:46:19;10.60;99.90
66088;DHT22;52872;52.994;6.940;2023-02-18T05:48:46;10.60;99.90
66088;DHT22;52872;52.994;6.940;2023-02-18T05:51:13;10.60;99.90
66088;DHT22;52872;52.994;6.940;2023-02-18T05:53:40;10.60;99.90
66088;DHT22;52872;52.994;6.940;2023-02-18T05:56:08;10.60;99.90
66088;DHT22;52872;52.994;6.940;2023-02-18T05:58:35;10.60;99.90
66088;DHT22;52872;52.994;6.940;2023-02-18T06:01:03;10.60;99.90
66088;DHT22;52872;52.994;6.940;2023-02-18T06:03:32;10.60;99.90
66088;DHT22;52872;52.994;6.940;2023-02-18T06:06:02;10.60;99.90
66088;DHT22;52872;52.994;6.940;2023-02-18T06:08:29;10.60;99.90
66088;DHT22;52872;52.994;6.940;2023-02-18T06:10:56;10.60;99.90
66088;DHT22;52872;52.994;6.940;2023-02-18T06:13:23;10.60;99.90
66088;DHT22;52872;52.994;6.940;2023-02-18T06:15:50;10.60;99.90
66088;DHT22;52872;52.994;6.940;2023-02-18T06:18:18;10.60;99.90
66088;DHT22;52872;52.994;6.940;2023-02-18T06:20:46;10.60;99.90
66088;DHT22;52872;52.994;6.940;2023-02-18T06:23:14;10.60;99.90
66088;DHT22;52872;52.994;6.940;2023-02-18T06:25:41;10.60;99.90
66088;DHT22;52872;52.994;6.940;2023-02-18T06:28:08;10.50;99.90
66088;DHT22;52872;52.994;6.940;2023-02-18T06:30:35;10.60;99.90
66088;DHT22;52872;52.994;6.940;2023-02-18T06:33:02;10.60;99.90
66088;DHT22;52872;52.994;6.940;2023-02-18T06:35:32;10.60;99.90
66088;DHT22;52872;52.994;6.940;2023-02-18T06:38:01;10.60;99.90
66088;DHT22;52872;52.994;6.940;2023-02-18T06:40:28;10.60;99.90
66088;DHT22;52872;52.994;6.940;2023-02-18T06:42:55;10.60;99.90
66088;DHT22;52872;52.994;6.940;2023-02-18T06:45:22;10.60;99.90
66088;DHT22;52872;52.994;6.940;2023-02-18T06:47:49;10.70;99.90
66088;DHT22;52872;52.994;6.940;2023-02-18T06:50:16;10.70;99.90
66088;DHT22;52872;52.994;6.940;2023-02-18T06:52:45;10.70;99.90
66088;DHT22;52872;52.994;6.940;2023-02-18T06:55:12;10.80;99.90
66088;DHT22;52872;52.994;6.940;2023-02-18T06:57:39;10.80;99.90
66088;DHT22;52872;52.994;6.940;2023-02-18T07:00:07;10.80;99.90
66088;DHT22;52872;52.994;6.940;2023-02-18T07:02:34;10.80;99.90
66088;DHT22;52872;52.994;6.940;2023-02-18T07:05:01;10.90;99.90
66088;DHT22;52872;52.994;6.940;2023-02-18T07:07:28;10.90;99.90
66088;DHT22;52872;52.994;6.940;2023-02-18T07:09:55;10.90;99.90
66088;DHT22;52872;52.994;6.940;2023-02-18T07:12:22;10.90;99.90
66088;DHT22;52872;52.994;6.940;2023-02-18T07:14:55;10.90;99.90
66088;DHT22;52872;52.994;6.940;2023-02-18T07:17:22;10.90;99.90
66088;DHT22;52872;52.994;6.940;2023-02-18T07:19:49;11.00;99.90
66088;DHT22;52872;52.994;6.940;2023-02-18T07:22:16;11.00;99.90
66088;DHT22;52872;52.994;6.940;2023-02-18T07:24:43;11.00;99.90
66088;DHT22;52872;52.994;6.940;2023-02-18T07:27:10;11.00;99.90
66088;DHT22;52872;52.994;6.940;2023-02-18T07:29:37;11.00;99.90
66088;DHT22;52872;52.994;6.940;2023-02-18T07:32:04;11.10;99.90
66088;DHT22;52872;52.994;6.940;2023-02-18T07:34:31;11.10;99.90
66088;DHT22;52872;52.994;6.940;2023-02-18T07:36:58;11.10;99.90
66088;DHT22;52872;52.994;6.940;2023-02-18T07:39:25;11.10;99.90
66088;DHT22;52872;52.994;6.940;2023-02-18T07:41:53;11.20;99.90
66088;DHT22;52872;52.994;6.940;2023-02-18T07:44:22;11.20;99.90
66088;DHT22;52872;52.994;6.940;2023-02-18T07:46:49;11.30;99.90
66088;DHT22;52872;52.994;6.940;2023-02-18T07:49:16;11.30;99.90
66088;DHT22;52872;52.994;6.940;2023-02-18T07:51:46;11.30;99.90
66088;DHT22;52872;52.994;6.940;2023-02-18T07:54:14;11.40;99.90
66088;DHT22;52872;52.994;6.940;2023-02-18T07:56:41;11.40;99.90
66088;DHT22;52872;52.994;6.940;2023-02-18T07:59:09;11.40;99.90
66088;DHT22;52872;52.994;6.940;2023-02-18T08:01:37;11.40;99.90
66088;DHT22;52872;52.994;6.940;2023-02-18T08:04:04;11.40;99.90
66088;DHT22;52872;52.994;6.940;2023-02-18T08:06:37;11.40;99.90
66088;DHT22;52872;52.994;6.940;2023-02-18T08:09:04;11.40;99.90
66088;DHT22;52872;52.994;6.940;2023-02-18T08:11:32;11.40;99.90
66088;DHT22;52872;52.994;6.940;2023-02-18T08:14:02;11.40;99.90
66088;DHT22;52872;52.994;6.940;2023-02-18T08:16:29;11.40;99.90
66088;DHT22;52872;52.994;6.940;2023-02-18T08:18:56;11.40;99.90
66088;DHT22;52872;52.994;6.940;2023-02-18T08:21:25;11.50;99.90
66088;DHT22;52872;52.994;6.940;2023-02-18T08:23:52;11.50;99.90
66088;DHT22;52872;52.994;6.940;2023-02-18T08:26:20;11.50;99.90
66088;DHT22;52872;52.994;6.940;2023-02-18T08:28:47;11.60;99.90
66088;DHT22;52872;52.994;6.940;2023-02-18T08:31:20;11.50;99.90
66088;DHT22;52872;52.994;6.940;2023-02-18T08:33:47;11.60;99.90
66088;DHT22;52872;52.994;6.940;2023-02-18T08:36:14;11.50;99.90
66088;DHT22;52872;52.994;6.940;2023-02-18T08:38:41;11.60;99.90
66088;DHT22;52872;52.994;6.940;2023-02-18T08:41:09;11.50;99.90
66088;DHT22;52872;52.994;6.940;2023-02-18T08:43:36;11.50;99.90
66088;DHT22;52872;52.994;6.940;2023-02-18T08:46:03;11.50;99.90
66088;DHT22;52872;52.994;6.940;2023-02-18T08:48:31;11.50;99.90
66088;DHT22;52872;52.994;6.940;2023-02-18T08:50:58;11.60;99.90
66088;DHT22;52872;52.994;6.940;2023-02-18T08:53:26;11.60;99.90
66088;DHT22;52872;52.994;6.940;2023-02-18T08:55:53;11.60;99.90
66088;DHT22;52872;52.994;6.940;2023-02-18T08:58:20;11.60;99.90
66088;DHT22;52872;52.994;6.940;2023-02-18T09:00:47;11.70;99.90
66088;DHT22;52872;52.994;6.940;2023-02-18T09:03:14;11.70;99.90
66088;DHT22;52872;52.994;6.940;2023-02-18T09:05:41;11.70;99.90
66088;DHT22;52872;52.994;6.940;2023-02-18T09:08:09;11.70;99.90
66088;DHT22;52872;52.994;6.940;2023-02-18T09:10:36;11.70;99.90
66088;DHT22;52872;52.994;6.940;2023-02-18T09:13:05;11.70;99.90
66088;DHT22;52872;52.994;6.940;2023-02-18T09:15:32;11.70;99.90
66088;DHT22;52872;52.994;6.940;2023-02-18T09:17:59;11.70;99.90
66088;DHT22;52872;52.994;6.940;2023-02-18T09:20:26;11.80;99.90
66088;DHT22;52872;52.994;6.940;2023-02-18T09:22:54;11.80;99.90
66088;DHT22;52872;52.994;6.940;2023-02-18T09:25:21;11.90;99.90
66088;DHT22;52872;52.994;6.940;2023-02-18T09:27:48;11.90;99.90
66088;DHT22;52872;52.994;6.940;2023-02-18T09:30:16;11.90;99.90
66088;DHT22;52872;52.994;6.940;2023-02-18T09:32:43;11.90;99.90
66088;DHT22;52872;52.994;6.940;2023-02-18T09:35:10;11.90;99.90
66088;DHT22;52872;52.994;6.940;2023-02-18T09:37:37;11.80;99.90
66088;DHT22;52872;52.994;6.940;2023-02-18T09:40:06;11.80;99.90
66088;DHT22;52872;52.994;6.940;2023-02-18T09:42:34;11.80;99.90
66088;DHT22;52872;52.994;6.940;2023-02-18T09:45:05;11.80;99.90
66088;DHT22;52872;52.994;6.940;2023-02-18T09:50:20;11.70;99.90
66088;DHT22;52872;52.994;6.940;2023-02-18T09:52:47;11.80;99.90
66088;DHT22;52872;52.994;6.940;2023-02-18T09:58:16;11.80;99.90
66088;DHT22;52872;52.994;6.940;2023-02-18T10:00:50;11.60;99.90
66088;DHT22;52872;52.994;6.940;2023-02-18T10:03:24;11.70;99.90
66088;DHT22;52872;52.994;6.940;2023-02-18T10:05:58;11.60;99.90
66088;DHT22;52872;52.994;6.940;2023-02-18T10:08:38;11.60;99.90
66088;DHT22;52872;52.994;6.940;2023-02-18T10:11:32;11.60;99.90
66088;DHT22;52872;52.994;6.940;2023-02-18T10:14:01;11.60;99.90
66088;DHT22;52872;52.994;6.940;2023-02-18T10:16:29;11.50;99.90
66088;DHT22;52872;52.994;6.940;2023-02-18T10:18:59;11.60;99.90
66088;DHT22;52872;52.994;6.940;2023-02-18T10:21:29;11.60;99.90
66088;DHT22;52872;52.994;6.940;2023-02-18T10:24:03;11.60;99.90
66088;DHT22;52872;52.994;6.940;2023-02-18T10:26:34;11.60;99.90
66088;DHT22;52872;52.994;6.940;2023-02-18T10:29:03;11.60;99.90
66088;DHT22;52872;52.994;6.940;2023-02-18T10:31:36;11.70;99.90
66088;DHT22;52872;52.994;6.940;2023-02-18T10:34:29;11.70;99.90
66088;DHT22;52872;52.994;6.940;2023-02-18T10:40:06;12.00;99.90
66088;DHT22;52872;52.994;6.940;2023-02-18T10:45:33;12.10;99.90
66088;DHT22;52872;52.994;6.940;2023-02-18T10:51:25;12.20;99.90
66088;DHT22;52872;52.994;6.940;2023-02-18T10:58:47;12.10;99.90
66088;DHT22;52872;52.994;6.940;2023-02-18T11:01:15;12.20;99.90
66088;DHT22;52872;52.994;6.940;2023-02-18T11:03:52;12.10;99.90
66088;DHT22;52872;52.994;6.940;2023-02-18T11:06:45;12.20;99.90
66088;DHT22;52872;52.994;6.940;2023-02-18T11:12:41;12.30;99.90
66088;DHT22;52872;52.994;6.940;2023-02-18T11:15:21;12.30;99.90
66088;DHT22;52872;52.994;6.940;2023-02-18T11:17:54;12.40;99.90
66088;DHT22;52872;52.994;6.940;2023-02-18T11:20:26;12.40;99.90
66088;DHT22;52872;52.994;6.940;2023-02-18T11:23:15;12.50;99.90
66088;DHT22;52872;52.994;6.940;2023-02-18T11:26:16;12.60;99.90
66088;DHT22;52872;52.994;6.940;2023-02-18T11:28:50;12.70;99.90
66088;DHT22;52872;52.994;6.940;2023-02-18T11:31:30;12.70;99.90
66088;DHT22;52872;52.994;6.940;2023-02-18T11:34:03;12.80;99.90
66088;DHT22;52872;52.994;6.940;2023-02-18T11:36:32;12.90;99.90
66088;DHT22;52872;52.994;6.940;2023-02-18T11:39:06;13.00;99.90
66088;DHT22;52872;52.994;6.940;2023-02-18T11:41:48;13.00;99.90
66088;DHT22;52872;52.994;6.940;2023-02-18T11:49:43;12.90;99.90
66088;DHT22;52872;52.994;6.940;2023-02-18T11:52:19;13.00;99.90
66088;DHT22;52872;52.994;6.940;2023-02-18T11:55:17;13.10;99.90
66088;DHT22;52872;52.994;6.940;2023-02-18T11:57:57;13.10;99.90
66088;DHT22;52872;52.994;6.940;2023-02-18T12:00:45;13.10;99.90
66088;DHT22;52872;52.994;6.940;2023-02-18T12:03:40;13.10;99.90
66088;DHT22;52872;52.994;6.940;2023-02-18T12:06:32;13.10;99.90
66088;DHT22;52872;52.994;6.940;2023-02-18T12:11:39;13.00;99.90
66088;DHT22;52872;52.994;6.940;2023-02-18T12:14:25;13.00;99.90
66088;DHT22;52872;52.994;6.940;2023-02-18T12:29:00;13.20;99.90
66088;DHT22;52872;52.994;6.940;2023-02-18T12:34:20;13.40;99.90
66088;DHT22;52872;52.994;6.940;2023-02-18T12:37:03;13.40;99.90
66088;DHT22;52872;52.994;6.940;2023-02-18T12:56:50;14.10;99.90
66088;DHT22;52872;52.994;6.940;2023-02-18T13:13:25;14.10;99.90
66088;DHT22;52872;52.994;6.940;2023-02-18T13:18:30;14.10;99.90
66088;DHT22;52872;52.994;6.940;2023-02-18T13:21:06;14.10;99.90
66088;DHT22;52872;52.994;6.940;2023-02-18T13:23:59;14.20;99.90
66088;DHT22;52872;52.994;6.940;2023-02-18T13:26:28;14.30;99.90
66088;DHT22;52872;52.994;6.940;2023-02-18T13:29:27;14.30;99.90
66088;DHT22;52872;52.994;6.940;2023-02-18T13:39:55;14.20;99.90
66088;DHT22;52872;52.994;6.940;2023-02-18T13:42:32;14.30;99.90
66088;DHT22;52872;52.994;6.940;2023-02-18T13:45:03;14.40;99.90
66088;DHT22;52872;52.994;6.940;2023-02-18T13:47:42;14.40;99.90
66088;DHT22;52872;52.994;6.940;2023-02-18T13:58:36;14.30;99.90
66088;DHT22;52872;52.994;6.940;2023-02-18T14:01:13;14.40;99.90
66088;DHT22;52872;52.994;6.940;2023-02-18T14:06:26;14.30;99.90
66088;DHT22;52872;52.994;6.940;2023-02-18T14:11:56;14.10;99.90
66088;DHT22;52872;52.994;6.940;2023-02-18T14:17:29;13.90;99.90
66088;DHT22;52872;52.994;6.940;2023-02-18T14:27:40;13.80;99.90
66088;DHT22;52872;52.994;6.940;2023-02-18T14:30:32;13.70;99.90
66088;DHT22;52872;52.994;6.940;2023-02-18T14:33:01;13.80;99.90
66088;DHT22;52872;52.994;6.940;2023-02-18T14:49:43;13.90;99.90
66088;DHT22;52872;52.994;6.940;2023-02-18T14:52:21;13.90;99.90
66088;DHT22;52872;52.994;6.940;2023-02-18T14:54:49;13.90;99.90
66088;DHT22;52872;52.994;6.940;2023-02-18T14:57:17;13.80;99.90
66088;DHT22;52872;52.994;6.940;2023-02-18T14:59:47;13.80;99.90
66088;DHT22;52872;52.994;6.940;2023-02-18T15:02:23;13.80;99.90
66088;DHT22;52872;52.994;6.940;2023-02-18T15:04:53;13.90;99.90
66088;DHT22;52872;52.994;6.940;2023-02-18T15:07:21;13.90;99.90
66088;DHT22;52872;52.994;6.940;2023-02-18T15:09:52;13.80;99.90
66088;DHT22;52872;52.994;6.940;2023-02-18T15:12:21;13.80;99.90
66088;DHT22;52872;52.994;6.940;2023-02-18T15:14:52;13.80;99.90
66088;DHT22;52872;52.994;6.940;2023-02-18T15:17:25;13.70;99.90
66088;DHT22;52872;52.994;6.940;2023-02-18T15:19:58;13.70;99.90
66088;DHT22;52872;52.994;6.940;2023-02-18T15:22:29;13.60;99.90
66088;DHT22;52872;52.994;6.940;2023-02-18T15:24:57;13.50;99.90
66088;DHT22;52872;52.994;6.940;2023-02-18T15:27:30;13.50;99.90
66088;DHT22;52872;52.994;6.940;2023-02-18T15:30:26;13.50;99.90
66088;DHT22;52872;52.994;6.940;2023-02-18T15:32:57;13.50;99.90
66088;DHT22;52872;52.994;6.940;2023-02-18T15:35:27;13.40;99.90
66088;DHT22;52872;52.994;6.940;2023-02-18T15:37:57;13.30;99.90
66088;DHT22;52872;52.994;6.940;2023-02-18T15:40:32;13.30;99.90
66088;DHT22;52872;52.994;6.940;2023-02-18T15:43:01;13.20;99.90
66088;DHT22;52872;52.994;6.940;2023-02-18T15:45:32;13.20;99.90
66088;DHT22;52872;52.994;6.940;2023-02-18T15:48:00;13.20;99.90
66088;DHT22;52872;52.994;6.940;2023-02-18T15:50:35;13.20;99.90
66088;DHT22;52872;52.994;6.940;2023-02-18T15:53:10;13.10;99.90
66088;DHT22;52872;52.994;6.940;2023-02-18T15:55:42;13.00;99.90
66088;DHT22;52872;52.994;6.940;2023-02-18T15:58:17;13.00;99.90
66088;DHT22;52872;52.994;6.940;2023-02-18T16:00:52;12.90;99.90
66088;DHT22;52872;52.994;6.940;2023-02-18T16:03:28;12.90;99.90
66088;DHT22;52872;52.994;6.940;2023-02-18T16:06:18;12.90;99.90
66088;DHT22;52872;52.994;6.940;2023-02-18T16:11:39;12.90;99.90
66088;DHT22;52872;52.994;6.940;2023-02-18T16:17:10;12.80;99.90
66088;DHT22;52872;52.994;6.940;2023-02-18T16:19:50;12.70;99.90
66088;DHT22;52872;52.994;6.940;2023-02-18T16:22:34;12.70;99.90
66088;DHT22;52872;52.994;6.940;2023-02-18T16:32:50;12.40;99.90
66088;DHT22;52872;52.994;6.940;2023-02-18T16:35:18;12.40;99.90
66088;DHT22;52872;52.994;6.940;2023-02-18T16:37:45;12.30;99.90
66088;DHT22;52872;52.994;6.940;2023-02-18T16:42:42;12.30;99.90
66088;DHT22;52872;52.994;6.940;2023-02-18T16:45:11;12.20;99.90
66088;DHT22;52872;52.994;6.940;2023-02-18T16:47:47;12.20;99.90
66088;DHT22;52872;52.994;6.940;2023-02-18T16:50:19;12.20;99.90
66088;DHT22;52872;52.994;6.940;2023-02-18T16:52:48;12.20;99.90
66088;DHT22;52872;52.994;6.940;2023-02-18T16:55:20;12.10;99.90
66088;DHT22;52872;52.994;6.940;2023-02-18T16:57:48;12.20;99.90
66088;DHT22;52872;52.994;6.940;2023-02-18T17:00:16;12.10;99.90
66088;DHT22;52872;52.994;6.940;2023-02-18T17:02:46;12.10;99.90
66088;DHT22;52872;52.994;6.940;2023-02-18T17:05:33;12.10;99.90
66088;DHT22;52872;52.994;6.940;2023-02-18T17:08:21;12.10;99.90
66088;DHT22;52872;52.994;6.940;2023-02-18T17:10:56;12.10;99.90
66088;DHT22;52872;52.994;6.940;2023-02-18T17:13:26;12.00;99.90
66088;DHT22;52872;52.994;6.940;2023-02-18T17:15:56;12.00;99.90
66088;DHT22;52872;52.994;6.940;2023-02-18T17:18:24;12.00;99.90
66088;DHT22;52872;52.994;6.940;2023-02-18T17:20:53;12.00;99.90
66088;DHT22;52872;52.994;6.940;2023-02-18T17:23:22;12.00;99.90
66088;DHT22;52872;52.994;6.940;2023-02-18T17:25:50;11.90;99.90
66088;DHT22;52872;52.994;6.940;2023-02-18T17:28:18;12.00;99.90
66088;DHT22;52872;52.994;6.940;2023-02-18T17:30:47;11.90;99.90
66088;DHT22;52872;52.994;6.940;2023-02-18T17:33:17;11.90;99.90
66088;DHT22;52872;52.994;6.940;2023-02-18T17:35:44;11.90;99.90
66088;DHT22;52872;52.994;6.940;2023-02-18T17:38:13;11.90;99.90
66088;DHT22;52872;52.994;6.940;2023-02-18T17:40:40;11.90;99.90
66088;DHT22;52872;52.994;6.940;2023-02-18T17:43:15;11.90;99.90
66088;DHT22;52872;52.994;6.940;2023-02-18T17:45:47;12.00;99.90
66088;DHT22;52872;52.994;6.940;2023-02-18T17:48:15;11.90;99.90
66088;DHT22;52872;52.994;6.940;2023-02-18T17:50:44;11.90;99.90
66088;DHT22;52872;52.994;6.940;2023-02-18T17:53:12;12.00;99.90
66088;DHT22;52872;52.994;6.940;2023-02-18T17:55:40;11.90;99.90
66088;DHT22;52872;52.994;6.940;2023-02-18T17:58:09;11.90;99.90
66088;DHT22;52872;52.994;6.940;2023-02-18T18:00:45;11.90;99.90
66088;DHT22;52872;52.994;6.940;2023-02-18T18:03:12;11.90;99.90
66088;DHT22;52872;52.994;6.940;2023-02-18T18:05:42;11.90;99.90
66088;DHT22;52872;52.994;6.940;2023-02-18T18:08:10;11.90;99.90
66088;DHT22;52872;52.994;6.940;2023-02-18T18:10:40;11.90;99.90
66088;DHT22;52872;52.994;6.940;2023-02-18T18:13:29;11.90;99.90
66088;DHT22;52872;52.994;6.940;2023-02-18T18:15:58;11.90;99.90
66088;DHT22;52872;52.994;6.940;2023-02-18T18:18:26;11.90;99.90
66088;DHT22;52872;52.994;6.940;2023-02-18T18:20:57;11.90;99.90
66088;DHT22;52872;52.994;6.940;2023-02-18T18:23:25;11.90;99.90
66088;DHT22;52872;52.994;6.940;2023-02-18T18:25:56;11.80;99.90
66088;DHT22;52872;52.994;6.940;2023-02-18T18:28:26;11.80;99.90
66088;DHT22;52872;52.994;6.940;2023-02-18T18:30:55;11.80;99.90
66088;DHT22;52872;52.994;6.940;2023-02-18T18:33:28;11.80;99.90
66088;DHT22;52872;52.994;6.940;2023-02-18T18:35:57;11.80;99.90
66088;DHT22;52872;52.994;6.940;2023-02-18T18:38:26;11.70;99.90
66088;DHT22;52872;52.994;6.940;2023-02-18T18:40:54;11.70;99.90
66088;DHT22;52872;52.994;6.940;2023-02-18T18:45:51;11.70;99.90
66088;DHT22;52872;52.994;6.940;2023-02-18T18:48:19;11.70;99.90
66088;DHT22;52872;52.994;6.940;2023-02-18T18:50:47;11.70;99.90
66088;DHT22;52872;52.994;6.940;2023-02-18T18:53:24;11.70;99.90
66088;DHT22;52872;52.994;6.940;2023-02-18T18:55:55;11.70;99.90
66088;DHT22;52872;52.994;6.940;2023-02-18T18:58:23;11.70;99.90
66088;DHT22;52872;52.994;6.940;2023-02-18T19:00:54;11.60;99.90
66088;DHT22;52872;52.994;6.940;2023-02-18T19:03:26;11.60;99.90